Terminal Aerodrome Forecast
Issued by NWS Shreveport, LA

Home | Current Version | Previous Version | Text Only | Print | Product List | Glossary On
Versions: 1 2 3 4 5 6 7 8 9 10 11 12 13 14 15 16 17 18 19 20 21 22 23 24 25 26 27 28 29 30 31 32 33 34 35 36 37
000
FTUS44 KSHV 241126
TAFSHV
TAF
KSHV 241126Z 2412/2512 02005KT P6SM VCSH SCT010 OVC020
      TEMPO 2412/2414 OVC008
     FM241400 01007KT P6SM SCT025
      TEMPO 2414/2416 BKN015
     FM241700 04010KT P6SM VCTS BKN050CB
     FM242200 07006KT P6SM SCT050 OVC120
     FM250600 05005KT P6SM SCT080 BKN250=

USA.gov is the U.S. government's official web portal to all federal, state and local government web resources and services.